createdAt,value
2022-11-24T00:00:08.116Z,100049.67
2022-11-24T00:02:38.847Z,100049.56
2022-11-24T00:05:09.426Z,100049.11
2022-11-24T00:07:39.573Z,100044.12
2022-11-24T00:10:10.162Z,100046.87
2022-11-24T00:12:40.854Z,100047.00
2022-11-24T00:15:11.448Z,100052.16
2022-11-24T00:17:42.109Z,100051.13
2022-11-24T00:20:12.443Z,100048.25
2022-11-24T00:22:42.789Z,100050.89
2022-11-24T00:25:13.424Z,100062.32
2022-11-24T00:27:44.170Z,100057.29
2022-11-24T00:30:14.743Z,100054.46
2022-11-24T00:32:45.116Z,100051.98
2022-11-24T00:35:15.769Z,100053.75
2022-11-24T00:37:46.497Z,100058.53
2022-11-24T00:40:17.098Z,100057.58
2022-11-24T00:42:47.867Z,100061.62
2022-11-24T00:45:18.413Z,100058.15
2022-11-24T00:47:49.097Z,100068.56
2022-11-24T00:50:19.726Z,100064.01
2022-11-24T00:52:50.406Z,100066.24
2022-11-24T00:55:20.790Z,100068.72
2022-11-24T00:57:51.343Z,100071.47
2022-11-24T01:00:22.031Z,100073.52
2022-11-24T01:02:52.819Z,100071.70
2022-11-24T01:05:23.305Z,100076.21
2022-11-24T01:07:53.893Z,100075.55
2022-11-24T01:10:24.323Z,100074.92
2022-11-24T01:12:54.994Z,100077.36
2022-11-24T01:15:25.634Z,100085.25
2022-11-24T01:17:56.077Z,100087.56
2022-11-24T01:20:26.677Z,100089.42
2022-11-24T01:22:57.474Z,100088.38
2022-11-24T01:25:28.069Z,100083.95
2022-11-24T01:27:58.654Z,100085.76
2022-11-24T01:30:29.477Z,100087.88
2022-11-24T01:33:00.056Z,100090.54
2022-11-24T01:35:30.617Z,100094.16
2022-11-24T01:38:01.346Z,100095.38
2022-11-24T01:40:31.980Z,100102.04
2022-11-24T01:43:02.606Z,100107.43
2022-11-24T01:45:33.256Z,100104.60
2022-11-24T01:48:03.933Z,100100.76
2022-11-24T01:50:34.693Z,100106.18
2022-11-24T01:53:05.331Z,100106.20
2022-11-24T01:55:35.988Z,100109.03
2022-11-24T01:58:06.614Z,100117.08
2022-11-24T02:00:37.322Z,100120.99
2022-11-24T02:03:07.965Z,100121.35
2022-11-24T02:05:38.594Z,100125.18
2022-11-24T02:08:09.339Z,100126.53
2022-11-24T02:10:39.984Z,100137.03
2022-11-24T02:13:10.672Z,100142.67
2022-11-24T02:15:41.488Z,100150.47
2022-11-24T02:18:11.953Z,100154.40
2022-11-24T02:20:42.614Z,100155.34
2022-11-24T02:23:13.316Z,100152.49
2022-11-24T02:25:44.051Z,100152.48
2022-11-24T02:28:14.636Z,100155.78
2022-11-24T02:30:44.990Z,100153.04
2022-11-24T02:33:15.639Z,100156.92
2022-11-24T02:35:46.274Z,100155.84
2022-11-24T02:38:16.974Z,100159.87
2022-11-24T02:40:47.636Z,100158.38
2022-11-24T02:43:17.662Z,100152.41
2022-11-24T02:45:47.826Z,100154.86
2022-11-24T02:48:18.545Z,100158.65
2022-11-24T02:50:49.258Z,100160.86
2022-11-24T02:53:19.896Z,100163.45
2022-11-24T02:55:50.484Z,100168.10
2022-11-24T02:58:21.127Z,100175.04
2022-11-24T03:00:51.916Z,100174.67
2022-11-24T03:03:22.467Z,100173.47
2022-11-24T03:05:53.238Z,100174.33
2022-11-24T03:08:23.948Z,100173.28
2022-11-24T03:10:54.474Z,100172.49
2022-11-24T03:13:25.141Z,100167.22
2022-11-24T03:15:55.857Z,100171.84
2022-11-24T03:18:26.474Z,100178.69
2022-11-24T03:20:57.125Z,100177.26
2022-11-24T03:23:27.789Z,100182.70
2022-11-24T03:25:58.503Z,100184.05
2022-11-24T03:28:29.099Z,100180.32
2022-11-24T03:30:59.812Z,100186.22
2022-11-24T03:33:30.416Z,100187.73
2022-11-24T03:36:01.090Z,100189.81
2022-11-24T03:38:31.736Z,100189.69
2022-11-24T03:41:02.404Z,100190.25
2022-11-24T03:43:32.713Z,100191.31
2022-11-24T03:46:03.544Z,100196.48
2022-11-24T03:48:34.104Z,100198.58
2022-11-24T03:51:04.837Z,100199.89
2022-11-24T03:53:35.101Z,100206.97
2022-11-24T03:56:05.775Z,100210.98
2022-11-24T03:58:36.451Z,100215.46
2022-11-24T04:01:06.832Z,100216.87
2022-11-24T04:03:37.487Z,100222.11
2022-11-24T04:06:08.185Z,100225.96
2022-11-24T04:08:38.471Z,100227.36
2022-11-24T04:11:09.145Z,100227.56
2022-11-24T04:13:39.882Z,100222.72
2022-11-24T04:16:10.570Z,100228.87
2022-11-24T04:18:41.136Z,100234.91
2022-11-24T04:21:11.890Z,100237.43
2022-11-24T04:23:42.534Z,100242.33
2022-11-24T04:26:13.113Z,100245.37
2022-11-24T04:28:43.757Z,100248.02
2022-11-24T04:31:14.481Z,100254.67
2022-11-24T04:33:45.092Z,100256.80
2022-11-24T04:36:15.759Z,100264.13
2022-11-24T04:39:24.143Z,100265.66
2022-11-24T04:41:17.075Z,100270.50
2022-11-24T04:43:47.831Z,100277.11
2022-11-24T04:46:18.501Z,100276.30
2022-11-24T04:48:49.032Z,100278.18
2022-11-24T04:51:19.707Z,100280.83
2022-11-24T04:53:50.336Z,100282.58
2022-11-24T04:56:20.996Z,100287.23
2022-11-24T04:58:51.647Z,100289.20
2022-11-24T05:01:22.384Z,100289.57
2022-11-24T05:03:53.003Z,100294.71
2022-11-24T05:06:23.628Z,100292.23
2022-11-24T05:08:54.285Z,100293.96
2022-11-24T05:11:24.940Z,100296.50
2022-11-24T05:13:55.593Z,100298.62
2022-11-24T05:16:26.297Z,100306.93
2022-11-24T05:18:56.902Z,100308.56
2022-11-24T05:21:27.574Z,100308.03
2022-11-24T05:23:58.223Z,100315.83
2022-11-24T05:26:28.866Z,100319.16
2022-11-24T05:28:59.512Z,100324.48
2022-11-24T05:31:29.921Z,100322.39
2022-11-24T05:34:00.547Z,100326.54
2022-11-24T05:36:31.239Z,100325.47
2022-11-24T05:39:01.900Z,100326.67
2022-11-24T05:41:32.566Z,100326.31
2022-11-24T05:44:03.008Z,100332.28
2022-11-24T05:46:33.725Z,100333.44
2022-11-24T05:49:04.320Z,100336.77
2022-11-24T05:51:34.994Z,100340.79
2022-11-24T05:54:05.651Z,100346.39
2022-11-24T05:56:36.327Z,100347.38
2022-11-24T05:59:09.975Z,100347.76
2022-11-24T06:01:37.758Z,100347.39
2022-11-24T06:04:07.986Z,100353.02
2022-11-24T06:06:38.681Z,100360.00
2022-11-24T06:09:09.329Z,100360.00
2022-11-24T06:11:39.724Z,100360.45
2022-11-24T06:14:11.436Z,100360.56
2022-11-24T06:16:41.177Z,100365.50
2022-11-24T06:19:11.805Z,100370.54
2022-11-24T06:21:42.457Z,100372.38
2022-11-24T06:24:13.035Z,100379.54
2022-11-24T06:26:43.711Z,100384.52
2022-11-24T06:29:14.364Z,100388.54
2022-11-24T06:31:45.083Z,100391.04
2022-11-24T06:34:15.673Z,100395.06
2022-11-24T06:36:46.477Z,100405.95
2022-11-24T06:39:16.977Z,100408.38
2022-11-24T06:41:47.735Z,100413.26
2022-11-24T06:44:18.310Z,100420.16
2022-11-24T06:46:48.958Z,100425.56
2022-11-24T06:49:19.016Z,100428.38
2022-11-24T06:51:49.376Z,100433.06
2022-11-24T06:54:20.056Z,100438.08
2022-11-24T06:56:50.401Z,100440.54
2022-11-24T06:59:21.050Z,100449.15
2022-11-24T07:01:51.736Z,100455.99
2022-11-24T07:04:22.359Z,100461.18
2022-11-24T07:06:53.167Z,100463.57
2022-11-24T07:09:23.743Z,100467.35
2022-11-24T07:11:54.310Z,100479.67
2022-11-24T07:14:24.963Z,100484.43
2022-11-24T07:16:55.747Z,100486.86
2022-11-24T07:19:25.921Z,100491.37
2022-11-24T07:21:56.589Z,100496.61
2022-11-24T07:24:27.323Z,100503.81
2022-11-24T07:26:57.860Z,100506.51
2022-11-24T07:29:28.488Z,100510.39
2022-11-24T07:32:05.028Z,100515.12
2022-11-24T07:34:29.768Z,100515.70
2022-11-24T07:37:00.414Z,100517.16
2022-11-24T07:39:31.038Z,100520.34
2022-11-24T07:42:01.681Z,100519.83
2022-11-24T07:44:32.634Z,100523.92
2022-11-24T07:47:03.015Z,100524.78
2022-11-24T07:49:33.300Z,100526.20
2022-11-24T07:52:03.930Z,100530.07
2022-11-24T07:54:34.746Z,100536.64
2022-11-24T07:57:05.248Z,100540.10
2022-11-24T07:59:35.810Z,100543.84
2022-11-24T08:02:06.566Z,100537.82
2022-11-24T08:04:37.128Z,100535.43
2022-11-24T08:07:07.196Z,100547.69
2022-11-24T08:09:37.728Z,100549.22
2022-11-24T08:12:08.385Z,100552.57
2022-11-24T08:14:39.037Z,100558.53
2022-11-24T08:17:09.887Z,100558.65
2022-11-24T08:19:40.318Z,100554.73
2022-11-24T08:22:11.042Z,100558.00
2022-11-24T08:24:41.561Z,100562.06
2022-11-24T08:27:12.324Z,100564.27
2022-11-24T08:29:42.807Z,100564.55
2022-11-24T08:32:18.846Z,100564.21
2022-11-24T08:34:44.054Z,100566.74
2022-11-24T08:37:14.704Z,100570.86
2022-11-24T08:39:45.332Z,100568.84
2022-11-24T08:42:15.977Z,100569.47
2022-11-24T08:44:46.615Z,100574.92
2022-11-24T08:47:17.296Z,100583.17
2022-11-24T08:49:47.945Z,100586.16
2022-11-24T08:52:18.616Z,100588.55
2022-11-24T08:54:49.232Z,100591.09
2022-11-24T08:57:21.907Z,100600.68
2022-11-24T08:59:50.531Z,100604.65
2022-11-24T09:02:21.187Z,100609.48
2022-11-24T09:04:51.975Z,100610.73
2022-11-24T09:07:22.510Z,100614.00
2022-11-24T09:09:53.255Z,100614.83
2022-11-24T09:12:23.709Z,100612.74
2022-11-24T09:14:54.346Z,100614.87
2022-11-24T09:17:24.731Z,100618.18
2022-11-24T09:19:55.335Z,100621.89
2022-11-24T09:22:25.977Z,100626.94
2022-11-24T09:24:56.588Z,100626.07
2022-11-24T09:27:26.936Z,100626.28
2022-11-24T09:29:57.554Z,100632.40
2022-11-24T09:32:28.193Z,100639.87
2022-11-24T09:34:58.815Z,100641.06
2022-11-24T09:37:32.598Z,100642.55
2022-11-24T09:40:00.135Z,100644.73
2022-11-24T09:42:30.433Z,100650.00
2022-11-24T09:45:01.008Z,100652.78
2022-11-24T09:47:31.645Z,100652.26
2022-11-24T09:50:02.310Z,100653.36
2022-11-24T09:52:32.922Z,100655.68
2022-11-24T09:55:03.543Z,100657.45
2022-11-24T09:57:37.250Z,100660.38
2022-11-24T10:00:04.782Z,100662.16
2022-11-24T10:02:35.413Z,100663.97
2022-11-24T10:05:05.771Z,100665.26
2022-11-24T10:07:36.540Z,100664.54
2022-11-24T10:10:06.983Z,100669.89
2022-11-24T10:12:37.612Z,100677.61
2022-11-24T10:15:08.225Z,100680.00
2022-11-24T10:17:38.582Z,100680.77
2022-11-24T10:20:09.208Z,100679.16
2022-11-24T10:22:39.937Z,100680.87
2022-11-24T10:25:10.114Z,100688.53
2022-11-24T10:27:40.774Z,100701.47
2022-11-24T10:30:11.396Z,100709.22
2022-11-24T10:32:42.064Z,100717.37
2022-11-24T10:35:12.697Z,100721.22
2022-11-24T10:37:43.373Z,100724.61
2022-11-24T10:40:33.336Z,100721.79
2022-11-24T10:42:44.655Z,100716.27
2022-11-24T10:45:15.289Z,100721.30
2022-11-24T10:47:45.649Z,100717.72
2022-11-24T10:50:16.324Z,100727.00
2022-11-24T10:52:46.663Z,100735.72
2022-11-24T10:55:17.389Z,100738.63
2022-11-24T10:57:47.936Z,100747.50
2022-11-24T11:00:18.586Z,100750.99
2022-11-24T11:02:49.266Z,100755.52
2022-11-24T11:05:19.846Z,100759.67
2022-11-24T11:07:50.590Z,100755.47
2022-11-24T11:10:21.103Z,100758.52
2022-11-24T11:12:51.603Z,100765.66
2022-11-24T11:15:22.027Z,100772.36
2022-11-24T11:17:52.654Z,100768.47
2022-11-24T11:20:22.991Z,100772.49
2022-11-24T11:22:53.025Z,100773.93
2022-11-24T11:25:23.639Z,100779.62
2022-11-24T11:27:54.279Z,100779.89
2022-11-24T11:35:25.601Z,100783.75
2022-11-24T11:37:56.274Z,100782.72
2022-11-24T11:40:26.512Z,100778.89
2022-11-24T11:45:27.568Z,100785.21
2022-11-24T11:47:58.061Z,100787.01
2022-11-24T11:50:28.852Z,100787.82
2022-11-24T11:52:59.271Z,100791.93
2022-11-24T11:55:29.952Z,100800.99
2022-11-24T11:58:00.466Z,100797.07
2022-11-24T12:00:31.067Z,100796.29
2022-11-24T12:03:01.801Z,100796.46
2022-11-24T12:05:31.997Z,100790.13
2022-11-24T12:08:09.238Z,100790.12
2022-11-24T12:10:32.845Z,100791.96
2022-11-24T12:13:03.452Z,100797.01
2022-11-24T12:15:34.046Z,100799.75
2022-11-24T12:18:04.509Z,100801.42
2022-11-24T12:20:35.261Z,100805.29
2022-11-24T12:23:05.882Z,100802.48
2022-11-24T12:25:36.521Z,100808.34
2022-11-24T12:28:07.367Z,100808.25
2022-11-24T12:30:37.879Z,100809.91
2022-11-24T12:33:07.924Z,100813.53
2022-11-24T12:35:38.257Z,100813.76
2022-11-24T12:38:08.855Z,100813.08
2022-11-24T12:40:43.520Z,100814.54
2022-11-24T12:43:09.949Z,100813.55
2022-11-24T12:45:40.634Z,100812.42
2022-11-24T12:48:11.152Z,100817.59
2022-11-24T12:50:41.167Z,100816.02
2022-11-24T12:53:11.434Z,100820.88
2022-11-24T12:55:42.034Z,100823.96
2022-11-24T12:58:12.619Z,100824.46
2022-11-24T13:00:43.317Z,100822.71
2022-11-24T13:03:13.905Z,100818.23
2022-11-24T13:05:44.128Z,100822.65
2022-11-24T13:08:14.739Z,100825.51
2022-11-24T13:10:57.202Z,100829.84
2022-11-24T13:13:15.662Z,100824.86
2022-11-24T13:15:46.415Z,100824.74
2022-11-24T13:18:16.680Z,100827.08
2022-11-24T13:20:46.823Z,100825.57
2022-11-24T13:23:17.157Z,100834.39
2022-11-24T13:25:47.748Z,100827.02
2022-11-24T13:28:28.361Z,100828.43
2022-11-24T13:30:48.576Z,100826.19
2022-11-24T13:33:21.684Z,100824.63
2022-11-24T13:35:49.763Z,100832.02
2022-11-24T13:38:20.084Z,100833.43
2022-11-24T13:41:21.083Z,100831.17
2022-11-24T13:43:20.975Z,100831.80
2022-11-24T13:45:51.199Z,100838.98
2022-11-24T13:48:22.662Z,100838.69
2022-11-24T13:50:52.382Z,100832.24
2022-11-24T13:53:22.641Z,100827.61
2022-11-24T13:55:53.287Z,100828.00
2022-11-24T13:58:23.906Z,100835.33
2022-11-24T14:00:58.247Z,100834.23
2022-11-24T14:03:25.183Z,100834.33
2022-11-24T14:05:55.667Z,100837.29
2022-11-24T14:08:26.006Z,100839.13
2022-11-24T14:10:56.574Z,100839.76
2022-11-24T14:13:26.825Z,100843.75
2022-11-24T14:15:57.511Z,100848.12
2022-11-24T14:18:27.736Z,100850.86
2022-11-24T14:20:58.316Z,100853.10
2022-11-24T14:23:28.935Z,100852.56
2022-11-24T14:25:59.500Z,100854.58
2022-11-24T14:28:30.192Z,100858.63
2022-11-24T14:31:00.778Z,100853.32
2022-11-24T14:33:31.300Z,100861.05
2022-11-24T14:36:01.997Z,100864.92
2022-11-24T14:38:32.530Z,100861.64
2022-11-24T14:41:05.743Z,100863.83
2022-11-24T14:43:33.677Z,100865.94
2022-11-24T14:46:04.301Z,100871.36
2022-11-24T14:48:34.874Z,100876.04
2022-11-24T14:51:05.575Z,100877.90
2022-11-24T14:53:35.788Z,100878.22
2022-11-24T14:56:06.430Z,100877.12
2022-11-24T14:58:42.004Z,100877.08
2022-11-24T15:01:07.783Z,100876.05
2022-11-24T15:03:38.192Z,100878.21
2022-11-24T15:06:08.451Z,100878.35
2022-11-24T15:08:39.027Z,100878.13
2022-11-24T15:11:09.623Z,100880.06
2022-11-24T15:13:40.222Z,100884.43
2022-11-24T15:16:10.619Z,100886.89
2022-11-24T15:18:41.135Z,100891.50
2022-11-24T15:21:15.609Z,100894.11
2022-11-24T15:23:42.339Z,100894.55
2022-11-24T15:26:12.959Z,100900.67
2022-11-24T15:28:43.584Z,100905.05
2022-11-24T15:31:14.421Z,100906.69
2022-11-24T15:33:44.493Z,100908.99
2022-11-24T15:36:15.118Z,100909.38
2022-11-24T15:38:45.729Z,100909.21
2022-11-24T15:41:16.406Z,100905.12
2022-11-24T15:43:46.938Z,100906.61
2022-11-24T15:46:17.654Z,100909.42
2022-11-24T15:48:48.143Z,100909.17
2022-11-24T15:51:18.767Z,100912.22
2022-11-24T15:53:49.361Z,100916.48
2022-11-24T15:56:19.962Z,100918.09
2022-11-24T15:58:50.562Z,100921.24
2022-11-24T16:01:21.255Z,100918.52
2022-11-24T16:03:51.794Z,100921.30
2022-11-24T16:06:25.054Z,100925.39
2022-11-24T16:08:53.039Z,100929.86
2022-11-24T16:11:23.691Z,100925.82
2022-11-24T16:13:54.662Z,100927.72
2022-11-24T16:16:24.880Z,100933.19
2022-11-24T16:18:55.210Z,100936.72
2022-11-24T16:21:25.578Z,100938.44
2022-11-24T16:23:56.204Z,100942.49
2022-11-24T16:26:26.837Z,100944.14
2022-11-24T16:28:57.760Z,100945.23
2022-11-24T16:31:28.627Z,100943.06
2022-11-24T16:33:58.990Z,100945.82
2022-11-24T16:36:29.653Z,100947.03
2022-11-24T16:39:00.297Z,100942.08
2022-11-24T16:41:30.880Z,100941.29
2022-11-24T16:44:01.565Z,100943.21
2022-11-24T16:46:32.267Z,100943.05
2022-11-24T16:49:02.831Z,100940.69
2022-11-24T16:51:35.198Z,100938.24
2022-11-24T16:54:03.688Z,100938.75
2022-11-24T16:56:34.393Z,100942.32
2022-11-24T16:59:04.952Z,100944.66
2022-11-24T17:01:35.708Z,100941.07
2022-11-24T17:04:11.034Z,100943.52
2022-11-24T17:06:36.943Z,100939.04
2022-11-24T17:09:07.492Z,100937.65
2022-11-24T17:11:38.005Z,100939.95
2022-11-24T17:14:08.312Z,100945.59
2022-11-24T17:16:38.985Z,100945.77
2022-11-24T17:19:09.570Z,100946.00
2022-11-24T17:21:40.200Z,100946.11
2022-11-24T17:24:10.814Z,100944.63
2022-11-24T17:26:44.744Z,100944.66
2022-11-24T17:29:11.755Z,100945.88
2022-11-24T17:31:42.336Z,100945.76
2022-11-24T17:34:12.778Z,100942.72
2022-11-24T17:36:43.437Z,100941.70
2022-11-24T17:39:13.867Z,100938.73
2022-11-24T17:41:44.458Z,100941.03
2022-11-24T17:44:15.098Z,100939.59
2022-11-24T17:46:45.755Z,100941.05
2022-11-24T17:49:16.044Z,100943.65
2022-11-24T17:51:46.721Z,100945.25
2022-11-24T17:54:45.273Z,100941.00
2022-11-24T17:56:47.738Z,100941.71
2022-11-24T17:59:18.105Z,100937.57
2022-11-24T18:01:48.759Z,100938.00
2022-11-24T18:04:19.415Z,100940.18
2022-11-24T18:06:50.084Z,100940.36
2022-11-24T18:09:20.734Z,100938.92
2022-11-24T18:11:51.402Z,100939.31
2022-11-24T18:14:22.048Z,100940.98
2022-11-24T18:16:52.841Z,100942.59
2022-11-24T18:19:23.389Z,100946.41
2022-11-24T18:21:54.076Z,100946.05
2022-11-24T18:24:24.739Z,100948.86
2022-11-24T18:26:55.411Z,100949.23
2022-11-24T18:29:25.715Z,100946.94
2022-11-24T18:31:56.439Z,100943.24
2022-11-24T18:34:27.047Z,100939.85
2022-11-24T18:36:57.733Z,100943.28
2022-11-24T18:39:28.391Z,100949.52
2022-11-24T18:41:58.795Z,100948.76
2022-11-24T18:44:29.456Z,100955.81
2022-11-24T18:47:00.144Z,100958.68
2022-11-24T18:49:30.797Z,100956.70
2022-11-24T18:52:01.500Z,100956.51
2022-11-24T18:54:32.285Z,100953.09
2022-11-24T18:57:03.723Z,100955.04
2022-11-24T18:59:33.308Z,100956.97
2022-11-24T19:02:04.023Z,100953.37
2022-11-24T19:04:34.569Z,100952.74
2022-11-24T19:07:04.921Z,100953.90
2022-11-24T19:09:35.630Z,100956.64
2022-11-24T19:12:06.552Z,100958.16
2022-11-24T19:14:37.200Z,100961.45
2022-11-24T19:17:07.629Z,100956.73
2022-11-24T19:19:38.336Z,100959.73
2022-11-24T19:22:08.487Z,100963.56
2022-11-24T19:24:39.094Z,100961.31
2022-11-24T19:27:09.841Z,100967.77
2022-11-24T19:29:43.146Z,100970.15
2022-11-24T19:32:11.321Z,100969.65
2022-11-24T19:34:41.954Z,100969.78
2022-11-24T19:37:12.604Z,100968.35
2022-11-24T19:39:43.329Z,100970.89
2022-11-24T19:42:13.922Z,100974.11
2022-11-24T19:44:44.608Z,100972.16
2022-11-24T19:47:15.313Z,100971.01
2022-11-24T19:49:45.983Z,100973.18
2022-11-24T19:52:16.694Z,100972.93
2022-11-24T19:54:47.352Z,100975.01
2022-11-24T19:57:18.162Z,100978.02
2022-11-24T19:59:48.779Z,100979.41
2022-11-24T20:02:19.078Z,100979.26
2022-11-24T20:04:49.712Z,100975.97
2022-11-24T20:07:20.494Z,100975.28
2022-11-24T20:09:51.053Z,100980.03
2022-11-24T20:12:21.742Z,100981.04
2022-11-24T20:14:52.408Z,100976.50
2022-11-24T20:17:23.097Z,100975.85
2022-11-24T20:19:53.424Z,100974.92
2022-11-24T20:22:23.918Z,100975.32
2022-11-24T20:24:54.585Z,100974.04
2022-11-24T20:27:25.268Z,100978.51
2022-11-24T20:29:55.593Z,100979.56
2022-11-24T20:32:26.281Z,100978.34
2022-11-24T20:34:56.956Z,100980.10
2022-11-24T20:37:27.382Z,100979.05
2022-11-24T20:39:58.034Z,100973.46
2022-11-24T20:42:28.722Z,100976.57
2022-11-24T20:44:59.129Z,100976.72
2022-11-24T20:47:29.860Z,100978.13
2022-11-24T20:50:00.496Z,100975.01
2022-11-24T20:52:31.202Z,100972.63
2022-11-24T20:55:01.527Z,100971.46
2022-11-24T20:57:31.942Z,100974.09
2022-11-24T21:00:02.705Z,100971.29
2022-11-24T21:02:33.248Z,100974.60
2022-11-24T21:05:03.699Z,100976.39
2022-11-24T21:07:34.048Z,100984.20
2022-11-24T21:10:04.465Z,100977.45
2022-11-24T21:12:34.832Z,100970.13
2022-11-24T21:15:05.670Z,100975.85
2022-11-24T21:17:36.408Z,100972.38
2022-11-24T21:20:07.042Z,100978.42
2022-11-24T21:22:37.776Z,100979.43
2022-11-24T21:25:08.180Z,100979.94
2022-11-24T21:27:38.896Z,100977.61
2022-11-24T21:30:09.612Z,100975.56
2022-11-24T21:32:40.427Z,100977.84
2022-11-24T21:35:11.044Z,100978.27
2022-11-24T21:37:41.371Z,100975.21
2022-11-24T21:40:11.720Z,100971.33
2022-11-24T21:42:42.543Z,100964.78
2022-11-24T21:45:12.546Z,100965.09
2022-11-24T21:47:43.208Z,100970.67
2022-11-24T21:50:13.623Z,100979.93
2022-11-24T21:52:44.039Z,100975.01
2022-11-24T21:55:14.673Z,100975.16
2022-11-24T21:57:45.397Z,100968.62
2022-11-24T22:00:16.126Z,100968.21
2022-11-24T22:02:46.628Z,100965.88
2022-11-24T22:05:17.237Z,100968.88
2022-11-24T22:07:48.099Z,100963.77
2022-11-24T22:10:18.670Z,100970.14
2022-11-24T22:12:49.104Z,100972.84
2022-11-24T22:15:19.460Z,100975.27
2022-11-24T22:17:49.909Z,100972.70
2022-11-24T22:20:20.600Z,100965.02
2022-11-24T22:22:51.045Z,100965.35
2022-11-24T22:25:21.394Z,100966.76
2022-11-24T22:27:52.119Z,100961.17
2022-11-24T22:30:22.964Z,100957.13
2022-11-24T22:32:53.267Z,100953.77
2022-11-24T22:35:23.985Z,100952.83
2022-11-24T22:37:54.438Z,100948.99
2022-11-24T22:40:25.132Z,100947.61
2022-11-24T22:45:26.715Z,100941.65
2022-11-24T22:47:57.320Z,100944.41
2022-11-24T22:50:28.026Z,100942.82
2022-11-24T22:52:58.126Z,100941.48
2022-11-24T22:55:28.273Z,100937.64
2022-11-24T22:57:59.007Z,100932.22
2022-11-24T23:00:29.717Z,100934.18
2022-11-24T23:03:00.493Z,100932.17
2022-11-24T23:05:31.154Z,100931.60
2022-11-24T23:08:01.900Z,100934.27
2022-11-24T23:10:32.334Z,100933.90
2022-11-24T23:13:02.704Z,100935.52
2022-11-24T23:15:33.416Z,100936.05
2022-11-24T23:18:04.172Z,100935.47
2022-11-24T23:20:34.993Z,100935.60
2022-11-24T23:23:05.354Z,100929.10
2022-11-24T23:25:36.075Z,100928.07
2022-11-24T23:28:06.545Z,100925.52
2022-11-24T23:30:36.922Z,100928.18
2022-11-24T23:33:07.729Z,100927.72
2022-11-24T23:35:38.098Z,100924.18
2022-11-24T23:38:08.849Z,100923.71
2022-11-24T23:40:39.557Z,100919.92
2022-11-24T23:43:10.023Z,100920.71
2022-11-24T23:45:40.801Z,100915.85
2022-11-24T23:48:11.497Z,100917.56
2022-11-24T23:50:42.219Z,100913.34
2022-11-24T23:53:13.141Z,100912.70
2022-11-24T23:55:43.681Z,100915.07
2022-11-24T23:58:14.397Z,100907.00
